createdAt,value
2019-06-15T00:00:20.433Z,20.65
2019-06-15T00:01:20.397Z,20.66
2019-06-15T00:02:20.190Z,20.75
2019-06-15T00:03:20.394Z,20.72
2019-06-15T00:04:20.393Z,20.72
2019-06-15T00:05:20.651Z,20.75
2019-06-15T00:06:20.410Z,20.7
2019-06-15T00:07:20.653Z,20.69
2019-06-15T00:08:20.404Z,20.69
2019-06-15T00:09:20.658Z,20.62
2019-06-15T00:10:20.208Z,20.52
2019-06-15T00:11:20.177Z,20.55
2019-06-15T00:12:20.168Z,20.58
2019-06-15T00:13:20.418Z,20.58
2019-06-15T00:14:20.165Z,20.51
2019-06-15T00:15:20.178Z,20.47
2019-06-15T00:16:20.459Z,20.48
2019-06-15T00:17:20.670Z,20.4
2019-06-15T00:18:20.432Z,20.39
2019-06-15T00:19:20.684Z,20.37
2019-06-15T00:20:20.406Z,20.37
2019-06-15T00:21:20.419Z,20.32
2019-06-15T00:22:20.678Z,20.32
2019-06-15T00:23:20.197Z,20.36
2019-06-15T00:24:32.200Z,20.34
2019-06-15T00:25:20.667Z,20.34
2019-06-15T00:26:20.673Z,20.31
2019-06-15T00:27:20.170Z,20.28
2019-06-15T00:28:20.574Z,20.32
2019-06-15T00:29:20.436Z,20.29
2019-06-15T00:30:20.747Z,20.31
2019-06-15T00:31:20.669Z,20.29
2019-06-15T00:32:20.680Z,20.28
2019-06-15T00:33:20.692Z,20.28
2019-06-15T00:34:20.487Z,20.19
2019-06-15T00:35:20.712Z,20.22
2019-06-15T00:36:20.690Z,20.22
2019-06-15T00:37:20.688Z,20.19
2019-06-15T00:38:20.205Z,20.1
2019-06-15T00:39:20.457Z,20.16
2019-06-15T00:40:20.459Z,20.07
2019-06-15T00:41:20.445Z,20.04
2019-06-15T00:42:20.696Z,20.03
2019-06-15T00:43:20.755Z,20.04
2019-06-15T00:44:20.209Z,20.06
2019-06-15T00:45:20.719Z,20.06
2019-06-15T00:46:20.441Z,20.06
2019-06-15T00:47:20.698Z,20.06
2019-06-15T00:48:20.211Z,20.02
2019-06-15T00:49:20.839Z,20.02
2019-06-15T00:50:20.461Z,19.94
2019-06-15T00:51:20.449Z,19.86
2019-06-15T00:52:20.454Z,19.91
2019-06-15T00:53:20.775Z,19.85
2019-06-15T00:54:20.497Z,19.81
2019-06-15T00:55:20.708Z,19.79
2019-06-15T00:56:20.233Z,19.74
2019-06-15T00:57:20.215Z,19.73
2019-06-15T00:58:20.719Z,19.67
2019-06-15T00:59:20.703Z,19.59
2019-06-15T01:00:20.724Z,19.67
2019-06-15T01:01:20.466Z,19.64
2019-06-15T01:02:20.724Z,19.62
2019-06-15T01:03:20.216Z,19.64
2019-06-15T01:04:20.468Z,19.59
2019-06-15T01:05:20.709Z,19.59
2019-06-15T01:06:20.730Z,19.55
2019-06-15T01:07:20.505Z,19.52
2019-06-15T01:08:20.215Z,19.63
2019-06-15T01:09:20.212Z,19.54
2019-06-15T01:10:20.727Z,19.59
2019-06-15T01:11:20.212Z,19.62
2019-06-15T01:12:20.466Z,19.52
2019-06-15T01:13:20.221Z,19.59
2019-06-15T01:14:20.497Z,19.49
2019-06-15T01:15:20.242Z,19.49
2019-06-15T01:16:20.492Z,19.51
2019-06-15T01:17:20.480Z,19.45
2019-06-15T01:18:20.732Z,19.41
2019-06-15T01:19:20.735Z,19.39
2019-06-15T01:20:20.523Z,19.36
2019-06-15T01:21:20.738Z,19.34
2019-06-15T01:22:20.732Z,19.34
2019-06-15T01:23:20.256Z,19.31
2019-06-15T01:24:20.229Z,19.34
2019-06-15T01:25:20.245Z,19.24
2019-06-15T01:26:20.488Z,19.3
2019-06-15T01:27:20.739Z,19.12
2019-06-15T01:28:20.718Z,19.15
2019-06-15T01:29:20.740Z,19.09
2019-06-15T01:30:20.731Z,19.09
2019-06-15T01:31:20.731Z,19.04
2019-06-15T01:32:20.488Z,19.09
2019-06-15T01:33:20.717Z,19.07
2019-06-15T01:34:20.474Z,19.02
2019-06-15T01:35:20.491Z,18.98
2019-06-15T01:36:20.737Z,18.99
2019-06-15T01:37:20.469Z,18.96
2019-06-15T01:38:20.524Z,18.98
2019-06-15T01:39:20.497Z,18.93
2019-06-15T01:40:20.736Z,18.93
2019-06-15T01:41:20.478Z,18.95
2019-06-15T01:42:20.489Z,18.95
2019-06-15T01:43:20.482Z,18.93
2019-06-15T01:44:20.495Z,19
2019-06-15T01:45:20.740Z,19
2019-06-15T01:46:20.488Z,19.04
2019-06-15T01:47:20.496Z,18.99
2019-06-15T01:48:20.484Z,19
2019-06-15T01:49:20.725Z,18.95
2019-06-15T01:50:20.505Z,18.93
2019-06-15T01:51:20.494Z,18.93
2019-06-15T01:52:20.513Z,18.92
2019-06-15T01:53:20.255Z,18.98
2019-06-15T01:54:20.477Z,18.84
2019-06-15T01:55:25.759Z,18.88
2019-06-15T01:56:20.726Z,18.83
2019-06-15T01:57:20.727Z,18.83
2019-06-15T01:58:20.492Z,18.88
2019-06-15T01:59:20.515Z,18.77
2019-06-15T02:00:20.497Z,18.86
2019-06-15T02:01:20.518Z,18.83
2019-06-15T02:02:20.863Z,18.81
2019-06-15T02:03:20.233Z,18.73
2019-06-15T02:04:20.474Z,18.73
2019-06-15T02:05:20.753Z,18.74
2019-06-15T02:06:20.498Z,18.75
2019-06-15T02:07:20.730Z,18.65
2019-06-15T02:08:20.479Z,18.66
2019-06-15T02:09:20.487Z,18.63
2019-06-15T02:10:20.293Z,18.56
2019-06-15T02:11:20.486Z,18.73
2019-06-15T02:12:20.558Z,18.59
2019-06-15T02:13:20.566Z,18.55
2019-06-15T02:14:20.754Z,18.62
2019-06-15T02:15:20.734Z,18.66
2019-06-15T02:16:20.764Z,18.63
2019-06-15T02:17:20.759Z,18.68
2019-06-15T02:18:20.239Z,18.65
2019-06-15T02:19:20.731Z,18.55
2019-06-15T02:20:20.262Z,18.55
2019-06-15T02:21:20.757Z,18.56
2019-06-15T02:22:20.518Z,18.52
2019-06-15T02:23:20.231Z,18.55
2019-06-15T02:24:20.822Z,18.49
2019-06-15T02:25:32.408Z,18.63
2019-06-15T02:26:20.767Z,18.5
2019-06-15T02:27:20.242Z,18.5
2019-06-15T02:28:20.485Z,18.41
2019-06-15T02:29:20.727Z,18.43
2019-06-15T02:30:20.772Z,18.52
2019-06-15T02:31:20.758Z,18.44
2019-06-15T02:32:20.756Z,18.41
2019-06-15T02:33:20.523Z,18.4
2019-06-15T02:34:20.728Z,18.35
2019-06-15T02:35:20.751Z,18.35
2019-06-15T02:36:20.762Z,18.38
2019-06-15T02:37:20.524Z,18.34
2019-06-15T02:38:20.513Z,18.31
2019-06-15T02:39:20.484Z,18.34
2019-06-15T02:40:20.739Z,18.25
2019-06-15T02:41:20.736Z,18.28
2019-06-15T02:42:20.494Z,18.33
2019-06-15T02:43:20.251Z,18.34
2019-06-15T02:44:20.754Z,18.29
2019-06-15T02:45:20.759Z,18.29
2019-06-15T02:46:20.236Z,18.37
2019-06-15T02:47:20.746Z,18.29
2019-06-15T02:48:20.745Z,18.29
2019-06-15T02:49:20.486Z,18.33
2019-06-15T02:50:20.511Z,18.37
2019-06-15T02:51:20.889Z,18.37
2019-06-15T02:52:20.496Z,18.29
2019-06-15T02:53:20.496Z,18.23
2019-06-15T02:54:20.485Z,18.25
2019-06-15T02:55:20.253Z,18.26
2019-06-15T02:56:20.244Z,18.23
2019-06-15T02:57:20.494Z,18.13
2019-06-15T02:58:20.245Z,18.18
2019-06-15T02:59:20.502Z,18.22
2019-06-15T03:00:20.742Z,18.11
2019-06-15T03:01:20.504Z,18.18
2019-06-15T03:02:20.484Z,18.13
2019-06-15T03:03:20.233Z,18.16
2019-06-15T03:04:20.768Z,18.15
2019-06-15T03:05:20.487Z,18.04
2019-06-15T03:06:20.484Z,18.18
2019-06-15T03:07:20.727Z,18.08
2019-06-15T03:08:20.732Z,18.15
2019-06-15T03:09:20.547Z,18.18
2019-06-15T03:10:20.736Z,18.18
2019-06-15T03:11:20.731Z,18.11
2019-06-15T03:12:20.480Z,18.15
2019-06-15T03:13:20.238Z,18.16
2019-06-15T03:14:20.730Z,18.16
2019-06-15T03:15:20.491Z,18.05
2019-06-15T03:16:20.500Z,18.03
2019-06-15T03:17:20.729Z,18.11
2019-06-15T03:18:20.729Z,18
2019-06-15T03:19:20.734Z,18.07
2019-06-15T03:20:20.748Z,17.97
2019-06-15T03:21:20.753Z,18.05
2019-06-15T03:22:20.498Z,18.07
2019-06-15T03:23:20.729Z,17.92
2019-06-15T03:24:20.743Z,17.94
2019-06-15T03:25:20.796Z,17.87
2019-06-15T03:26:20.758Z,17.92
2019-06-15T03:27:20.741Z,18.04
2019-06-15T03:28:20.238Z,18.04
2019-06-15T03:29:20.730Z,18.07
2019-06-15T03:30:20.769Z,18.08
2019-06-15T03:31:20.489Z,17.92
2019-06-15T03:32:20.499Z,18.03
2019-06-15T03:33:20.238Z,18.01
2019-06-15T03:34:20.231Z,17.98
2019-06-15T03:35:20.485Z,18.04
2019-06-15T03:36:20.722Z,18.11
2019-06-15T03:37:20.485Z,18.11
2019-06-15T03:38:20.246Z,18.18
2019-06-15T03:39:20.508Z,18.08
2019-06-15T03:40:20.757Z,18.16
2019-06-15T03:41:20.743Z,18.16
2019-06-15T03:42:20.245Z,18.03
2019-06-15T03:43:20.485Z,18.05
2019-06-15T03:44:20.719Z,18.07
2019-06-15T03:45:20.256Z,18.16
2019-06-15T03:46:20.729Z,18.22
2019-06-15T03:47:20.741Z,18.1
2019-06-15T03:48:20.244Z,18.18
2019-06-15T03:49:20.742Z,18.11
2019-06-15T03:50:20.490Z,18.2
2019-06-15T03:51:20.716Z,18.13
2019-06-15T03:52:20.231Z,18.25
2019-06-15T03:53:20.501Z,18.23
2019-06-15T03:54:20.505Z,18.25
2019-06-15T03:55:20.733Z,18.25
2019-06-15T03:56:26.410Z,18.29
2019-06-15T03:57:20.721Z,18.29
2019-06-15T03:58:20.717Z,18.44
2019-06-15T03:59:20.727Z,18.33
2019-06-15T04:00:20.727Z,18.47
2019-06-15T04:01:20.738Z,18.47
2019-06-15T04:02:20.241Z,18.6
2019-06-15T04:03:20.482Z,18.53
2019-06-15T04:04:20.473Z,18.68
2019-06-15T04:05:20.739Z,18.71
2019-06-15T04:06:20.744Z,18.8
2019-06-15T04:07:20.724Z,18.99
2019-06-15T04:08:20.243Z,19.16
2019-06-15T04:09:20.717Z,19.19
2019-06-15T04:10:20.256Z,19.36
2019-06-15T04:11:20.481Z,19.44
2019-06-15T04:12:20.233Z,19.55
2019-06-15T04:13:20.236Z,19.69
2019-06-15T04:14:20.476Z,19.86
2019-06-15T04:15:20.734Z,19.95
2019-06-15T04:16:20.738Z,20
2019-06-15T04:17:20.236Z,20.11
2019-06-15T04:18:20.722Z,20.22
2019-06-15T04:19:20.494Z,20.21
2019-06-15T04:20:20.735Z,20.41
2019-06-15T04:21:20.807Z,20.4
2019-06-15T04:22:20.538Z,20.43
2019-06-15T04:23:21.566Z,20.58
2019-06-15T04:24:20.769Z,20.66
2019-06-15T04:25:20.792Z,20.82
2019-06-15T04:26:27.801Z,20.82
2019-06-15T04:27:20.735Z,20.9
2019-06-15T04:28:20.503Z,21.06
2019-06-15T04:29:20.250Z,21.11
2019-06-15T04:30:20.756Z,21.27
2019-06-15T04:31:20.495Z,21.32
2019-06-15T04:32:20.771Z,21.3
2019-06-15T04:33:20.761Z,21.36
2019-06-15T04:34:20.778Z,21.45
2019-06-15T04:35:20.596Z,21.46
2019-06-15T04:36:20.761Z,21.58
2019-06-15T04:37:20.550Z,21.52
2019-06-15T04:38:20.528Z,21.39
2019-06-15T04:39:20.522Z,21.27
2019-06-15T04:40:20.310Z,21.35
2019-06-15T04:41:20.765Z,21.32
2019-06-15T04:42:20.785Z,21.43
2019-06-15T04:43:20.801Z,21.25
2019-06-15T04:44:20.791Z,21.21
2019-06-15T04:45:20.296Z,21.37
2019-06-15T04:46:20.804Z,21.29
2019-06-15T04:47:20.311Z,21.24
2019-06-15T04:48:20.543Z,21.22
2019-06-15T04:49:20.786Z,21.39
2019-06-15T04:50:20.792Z,21.36
2019-06-15T04:51:20.781Z,21.43
2019-06-15T04:52:20.540Z,21.45
2019-06-15T04:53:20.543Z,21.52
2019-06-15T04:54:20.536Z,21.55
2019-06-15T04:55:20.799Z,21.58
2019-06-15T04:56:20.820Z,21.62
2019-06-15T04:57:20.540Z,21.6
2019-06-15T04:58:20.361Z,21.76
2019-06-15T04:59:20.392Z,21.72
2019-06-15T05:00:20.630Z,21.8
2019-06-15T05:01:20.582Z,21.72
2019-06-15T05:02:20.905Z,21.75
2019-06-15T05:03:20.631Z,21.69
2019-06-15T05:04:20.880Z,21.6
2019-06-15T05:05:20.575Z,21.52
2019-06-15T05:06:20.561Z,21.52
2019-06-15T05:07:20.822Z,21.5
2019-06-15T05:08:20.830Z,21.57
2019-06-15T05:09:20.842Z,21.79
2019-06-15T05:10:20.344Z,22.06
2019-06-15T05:11:20.583Z,22.29
2019-06-15T05:12:20.575Z,22.62
2019-06-15T05:13:20.580Z,22.9
2019-06-15T05:14:20.331Z,23.1
2019-06-15T05:15:20.598Z,23.13
2019-06-15T05:16:20.847Z,23.25
2019-06-15T05:17:20.897Z,23.21
2019-06-15T05:18:20.607Z,23.27
2019-06-15T05:19:20.453Z,23.28
2019-06-15T05:20:20.887Z,23.28
2019-06-15T05:21:20.937Z,23.34
2019-06-15T05:22:20.921Z,23.39
2019-06-15T05:23:20.616Z,23.47
2019-06-15T05:24:20.954Z,23.47
2019-06-15T05:25:20.907Z,23.55
2019-06-15T05:26:20.887Z,23.63
2019-06-15T05:27:20.385Z,23.8
2019-06-15T05:28:20.405Z,23.91
2019-06-15T05:29:20.459Z,23.93
2019-06-15T05:30:20.922Z,23.93
2019-06-15T05:31:20.906Z,23.76
2019-06-15T05:32:20.653Z,23.71
2019-06-15T05:33:21.706Z,23.56
2019-06-15T05:34:20.729Z,23.61
2019-06-15T05:35:23.427Z,23.65
2019-06-15T05:36:20.674Z,23.69
2019-06-15T05:37:21.000Z,23.98
2019-06-15T05:38:20.723Z,24.29
2019-06-15T05:39:20.695Z,24.73
2019-06-15T05:40:20.721Z,25.07
2019-06-15T05:41:21.236Z,25.47
2019-06-15T05:42:20.980Z,25.84
2019-06-15T05:43:20.703Z,25.98
2019-06-15T05:44:20.975Z,26.09
2019-06-15T05:45:20.722Z,26.05
2019-06-15T05:46:20.735Z,26.1
2019-06-15T05:47:20.769Z,26.07
2019-06-15T05:48:20.997Z,26.21
2019-06-15T05:49:21.014Z,26.25
2019-06-15T05:50:21.058Z,26.1
2019-06-15T05:51:20.746Z,25.93
2019-06-15T05:52:20.801Z,25.98
2019-06-15T05:53:20.748Z,25.72
2019-06-15T05:54:20.999Z,25.58
2019-06-15T05:55:21.009Z,25.4
2019-06-15T05:56:21.015Z,25.31
2019-06-15T05:57:26.087Z,25.29
2019-06-15T05:58:21.043Z,25.44
2019-06-15T05:59:20.528Z,25.6
2019-06-15T06:00:21.061Z,25.83
2019-06-15T06:01:20.557Z,25.98
2019-06-15T06:02:26.256Z,26.19
2019-06-15T06:03:21.043Z,26.7
2019-06-15T06:04:21.065Z,27.14
2019-06-15T06:05:21.071Z,27.6
2019-06-15T06:06:20.578Z,28.02
2019-06-15T06:07:20.831Z,28.22
2019-06-15T06:08:21.088Z,28.41
2019-06-15T06:09:20.893Z,28.64
2019-06-15T06:10:20.856Z,28.59
2019-06-15T06:11:20.862Z,28.76
2019-06-15T06:12:20.607Z,28.79
2019-06-15T06:13:21.126Z,28.59
2019-06-15T06:14:20.880Z,28.37
2019-06-15T06:15:21.146Z,28.2
2019-06-15T06:16:21.150Z,28.15
2019-06-15T06:17:21.144Z,28.19
2019-06-15T06:18:20.928Z,28.22
2019-06-15T06:19:21.161Z,28.2
2019-06-15T06:20:20.924Z,28.25
2019-06-15T06:21:21.171Z,28.2
2019-06-15T06:22:21.180Z,28.3
2019-06-15T06:23:20.693Z,28.57
2019-06-15T06:24:20.983Z,28.86
2019-06-15T06:25:21.242Z,28.84
2019-06-15T06:26:21.218Z,28.81
2019-06-15T06:27:33.262Z,29.01
2019-06-15T06:28:20.726Z,29.13
2019-06-15T06:29:21.804Z,29.29
2019-06-15T06:30:21.264Z,29.6
2019-06-15T06:31:21.296Z,29.86
2019-06-15T06:32:21.292Z,30.15
2019-06-15T06:33:21.286Z,30.19
2019-06-15T06:34:20.836Z,30.12
2019-06-15T06:35:21.061Z,29.79
2019-06-15T06:36:20.944Z,29.47
2019-06-15T06:37:21.293Z,29.22
2019-06-15T06:38:21.361Z,29.04
2019-06-15T06:39:21.074Z,28.85
2019-06-15T06:40:21.115Z,28.63
2019-06-15T06:41:21.076Z,28.41
2019-06-15T06:42:20.833Z,28.25
2019-06-15T06:43:21.465Z,27.75
2019-06-15T06:44:21.360Z,27.4
2019-06-15T06:45:21.356Z,27.14
2019-06-15T06:46:20.866Z,26.95
2019-06-15T06:47:21.114Z,26.65
2019-06-15T06:48:20.874Z,26.52
2019-06-15T06:49:21.402Z,26.36
2019-06-15T06:50:21.132Z,26.31
2019-06-15T06:51:21.147Z,26.31
2019-06-15T06:52:21.398Z,26.15
2019-06-15T06:53:21.406Z,26.22
2019-06-15T06:54:21.451Z,26.05
2019-06-15T06:55:21.163Z,25.96
2019-06-15T06:56:21.410Z,25.84
2019-06-15T06:57:21.198Z,25.73
2019-06-15T06:58:21.213Z,25.6
2019-06-15T06:59:21.995Z,25.59
2019-06-15T07:00:21.447Z,25.35
2019-06-15T07:01:21.433Z,25.08
2019-06-15T07:02:20.949Z,24.91
2019-06-15T07:03:21.202Z,24.6
2019-06-15T07:04:21.454Z,24.43
2019-06-15T07:05:21.452Z,24.33
2019-06-15T07:06:21.469Z,24.3
2019-06-15T07:07:21.474Z,24.26
2019-06-15T07:08:21.011Z,24.3
2019-06-15T07:09:21.240Z,24.45
2019-06-15T07:10:21.004Z,24.48
2019-06-15T07:11:21.309Z,24.42
2019-06-15T07:12:21.506Z,24.5
2019-06-15T07:13:21.039Z,24.86
2019-06-15T07:14:21.515Z,25.07
2019-06-15T07:15:21.515Z,25.1
2019-06-15T07:16:21.270Z,25.33
2019-06-15T07:17:21.512Z,25.41
2019-06-15T07:18:21.293Z,25.68
2019-06-15T07:19:21.528Z,25.7
2019-06-15T07:20:21.553Z,25.62
2019-06-15T07:21:21.051Z,25.48
2019-06-15T07:22:21.546Z,25.43
2019-06-15T07:23:21.317Z,25.54
2019-06-15T07:24:21.543Z,25.83
2019-06-15T07:25:21.312Z,25.96
2019-06-15T07:26:21.056Z,25.99
2019-06-15T07:27:21.316Z,25.84
2019-06-15T07:28:21.691Z,25.46
2019-06-15T07:29:21.346Z,25.23
2019-06-15T07:30:21.352Z,25.03
2019-06-15T07:31:21.371Z,24.84
2019-06-15T07:32:21.639Z,24.48
2019-06-15T07:33:21.632Z,24.33
2019-06-15T07:34:21.636Z,24.3
2019-06-15T07:35:21.608Z,24.35
2019-06-15T07:36:21.603Z,24.81
2019-06-15T07:37:21.363Z,24.95
2019-06-15T07:38:21.370Z,25.26
2019-06-15T07:39:21.622Z,25.23
2019-06-15T07:40:21.385Z,25.16
2019-06-15T07:41:21.400Z,25.23
2019-06-15T07:42:21.651Z,25.26
2019-06-15T07:43:21.389Z,25.6
2019-06-15T07:44:21.638Z,26.06
2019-06-15T07:45:21.654Z,26.22
2019-06-15T07:46:21.693Z,26.34
2019-06-15T07:47:21.702Z,26.34
2019-06-15T07:48:21.424Z,26.52
2019-06-15T07:49:21.662Z,26.7
2019-06-15T07:50:21.418Z,26.71
2019-06-15T07:51:21.699Z,26.55
2019-06-15T07:52:21.441Z,26.26
2019-06-15T07:53:21.212Z,26.25
2019-06-15T07:54:21.727Z,26.44
2019-06-15T07:55:21.708Z,26.88
2019-06-15T07:56:21.710Z,27.54
2019-06-15T07:57:21.453Z,28.26
2019-06-15T07:58:29.184Z,28.74
2019-06-15T07:59:21.756Z,28.48
2019-06-15T08:00:21.489Z,28.17
2019-06-15T08:01:21.476Z,27.78
2019-06-15T08:02:21.487Z,27.87
2019-06-15T08:03:21.510Z,27.73
2019-06-15T08:04:21.744Z,27.63
2019-06-15T08:05:21.752Z,27.4
2019-06-15T08:06:21.505Z,27.51
2019-06-15T08:07:21.269Z,27.63
2019-06-15T08:08:21.540Z,27.93
2019-06-15T08:09:21.778Z,28.35
2019-06-15T08:10:21.784Z,28.3
2019-06-15T08:11:21.788Z,28.41
2019-06-15T08:12:21.868Z,28.51
2019-06-15T08:13:21.350Z,28.56
2019-06-15T08:14:21.832Z,28.64
2019-06-15T08:15:21.583Z,28.6
2019-06-15T08:16:21.816Z,28.59
2019-06-15T08:17:21.575Z,28.59
2019-06-15T08:18:21.593Z,28.49
2019-06-15T08:19:21.869Z,28.38
2019-06-15T08:20:21.587Z,28.12
2019-06-15T08:21:21.604Z,28.1
2019-06-15T08:22:21.862Z,28.07
2019-06-15T08:23:21.867Z,28.2
2019-06-15T08:24:21.384Z,28.17
2019-06-15T08:25:21.736Z,28.19
2019-06-15T08:26:21.637Z,28.26
2019-06-15T08:27:21.658Z,28.88
2019-06-15T08:28:21.660Z,29.34
2019-06-15T08:29:21.932Z,29.72
2019-06-15T08:30:21.651Z,30.08
2019-06-15T08:31:21.665Z,30.34
2019-06-15T08:32:21.665Z,30.62
2019-06-15T08:33:21.441Z,30.94
2019-06-15T08:34:21.929Z,31.34
2019-06-15T08:35:21.688Z,31.4
2019-06-15T08:36:21.979Z,31.36
2019-06-15T08:37:21.964Z,31.15
2019-06-15T08:38:21.715Z,30.97
2019-06-15T08:39:21.471Z,30.69
2019-06-15T08:40:21.755Z,30.37
2019-06-15T08:41:22.031Z,30.23
2019-06-15T08:42:21.732Z,30
2019-06-15T08:43:21.504Z,29.86
2019-06-15T08:44:21.988Z,30.15
2019-06-15T08:45:22.036Z,30.27
2019-06-15T08:46:22.039Z,30.37
2019-06-15T08:47:22.034Z,30.03
2019-06-15T08:48:22.041Z,29.91
2019-06-15T08:49:22.104Z,29.49
2019-06-15T08:50:21.555Z,29.19
2019-06-15T08:51:21.830Z,28.78
2019-06-15T08:52:21.792Z,28.22
2019-06-15T08:53:21.581Z,27.9
2019-06-15T08:54:22.109Z,27.83
2019-06-15T08:55:22.092Z,28.15
2019-06-15T08:56:22.109Z,28.41
2019-06-15T08:57:22.117Z,28.64
2019-06-15T08:58:22.111Z,28.69
2019-06-15T08:59:21.878Z,28.63
2019-06-15T09:00:21.630Z,28.35
2019-06-15T09:01:22.102Z,28.07
2019-06-15T09:02:21.916Z,27.89
2019-06-15T09:03:22.115Z,27.64
2019-06-15T09:04:22.386Z,27.49
2019-06-15T09:05:22.139Z,27.37
2019-06-15T09:06:21.880Z,27.32
2019-06-15T09:07:22.158Z,27.17
2019-06-15T09:08:21.901Z,26.95
2019-06-15T09:09:21.921Z,26.77
2019-06-15T09:10:22.230Z,26.65
2019-06-15T09:11:22.187Z,26.66
2019-06-15T09:12:24.317Z,26.65
2019-06-15T09:13:21.941Z,26.84
2019-06-15T09:14:22.215Z,26.96
2019-06-15T09:15:21.955Z,27.08
2019-06-15T09:16:21.946Z,27.27
2019-06-15T09:17:22.206Z,27.47
2019-06-15T09:18:22.207Z,27.52
2019-06-15T09:19:22.231Z,27.51
2019-06-15T09:20:22.084Z,27.64
2019-06-15T09:21:22.078Z,27.78
2019-06-15T09:22:22.242Z,27.68
2019-06-15T09:23:22.109Z,27.42
2019-06-15T09:24:22.233Z,27.3
2019-06-15T09:25:22.293Z,27.32
2019-06-15T09:26:22.280Z,27.48
2019-06-15T09:27:22.300Z,27.39
2019-06-15T09:28:22.277Z,27.45
2019-06-15T09:29:22.038Z,27.52
2019-06-15T09:30:21.831Z,27.6
2019-06-15T09:31:22.310Z,27.48
2019-06-15T09:32:22.325Z,27.33
2019-06-15T09:33:22.106Z,27.36
2019-06-15T09:34:24.130Z,27.39
2019-06-15T09:35:22.063Z,27.55
2019-06-15T09:36:22.335Z,27.65
2019-06-15T09:37:21.811Z,27.58
2019-06-15T09:38:21.812Z,27.58
2019-06-15T09:39:22.337Z,27.59
2019-06-15T09:40:21.828Z,27.73
2019-06-15T09:41:22.106Z,27.65
2019-06-15T09:42:22.107Z,27.54
2019-06-15T09:43:22.124Z,27.63
2019-06-15T09:44:22.118Z,27.78
2019-06-15T09:45:21.880Z,27.9
2019-06-15T09:46:21.867Z,28.02
2019-06-15T09:47:22.122Z,27.9
2019-06-15T09:48:22.218Z,27.82
2019-06-15T09:49:22.147Z,27.87
2019-06-15T09:50:22.386Z,27.95
2019-06-15T09:51:22.161Z,28.11
2019-06-15T09:52:22.163Z,28.22
2019-06-15T09:53:21.902Z,28.17
2019-06-15T09:54:22.409Z,28.19
2019-06-15T09:55:22.200Z,28.22
2019-06-15T09:56:21.933Z,28.15
2019-06-15T09:57:22.429Z,28.14
2019-06-15T09:58:22.169Z,28.2
2019-06-15T09:59:30.786Z,28.14
2019-06-15T10:00:22.510Z,28.1
2019-06-15T10:01:22.198Z,28.12
2019-06-15T10:02:22.459Z,28.05
2019-06-15T10:03:21.969Z,27.75
2019-06-15T10:04:22.527Z,27.67
2019-06-15T10:05:22.466Z,27.64
2019-06-15T10:06:22.480Z,27.73
2019-06-15T10:07:22.233Z,27.71
2019-06-15T10:08:22.265Z,27.75
2019-06-15T10:09:22.500Z,27.93
2019-06-15T10:10:22.256Z,27.98
2019-06-15T10:11:22.505Z,28.2
2019-06-15T10:12:22.517Z,28.32
2019-06-15T10:13:22.033Z,28.27
2019-06-15T10:14:22.552Z,28.19
2019-06-15T10:15:22.596Z,28.01
2019-06-15T10:16:22.531Z,27.78
2019-06-15T10:17:22.314Z,27.68
2019-06-15T10:18:22.046Z,27.63
2019-06-15T10:19:22.284Z,27.64
2019-06-15T10:20:22.344Z,27.71
2019-06-15T10:21:22.554Z,27.86
2019-06-15T10:22:22.579Z,27.86
2019-06-15T10:23:22.067Z,27.86
2019-06-15T10:24:22.576Z,27.89
2019-06-15T10:25:22.466Z,28.02
2019-06-15T10:26:22.331Z,28.01
2019-06-15T10:27:22.579Z,27.73
2019-06-15T10:28:22.336Z,27.64
2019-06-15T10:29:22.624Z,27.58
2019-06-15T10:30:22.376Z,27.51
2019-06-15T10:31:22.696Z,27.51
2019-06-15T10:32:22.631Z,27.44
2019-06-15T10:33:22.369Z,27.37
2019-06-15T10:34:22.642Z,27.32
2019-06-15T10:35:22.410Z,27.22
2019-06-15T10:36:22.137Z,27.08
2019-06-15T10:37:22.394Z,27
2019-06-15T10:38:22.145Z,26.95
2019-06-15T10:39:22.648Z,26.84
2019-06-15T10:40:22.405Z,26.74
2019-06-15T10:41:22.665Z,26.65
2019-06-15T10:42:25.384Z,26.71
2019-06-15T10:43:22.170Z,26.6
2019-06-15T10:44:22.180Z,26.58
2019-06-15T10:45:22.498Z,26.53
2019-06-15T10:46:22.439Z,26.58
2019-06-15T10:47:22.452Z,26.51
2019-06-15T10:48:22.517Z,26.52
2019-06-15T10:49:22.777Z,26.48
2019-06-15T10:50:22.499Z,26.38
2019-06-15T10:51:22.252Z,26.4
2019-06-15T10:52:22.479Z,26.44
2019-06-15T10:53:22.221Z,26.37
2019-06-15T10:54:22.718Z,26.4
2019-06-15T10:55:24.334Z,26.48
2019-06-15T10:56:22.737Z,26.59
2019-06-15T10:57:22.730Z,26.7
2019-06-15T10:58:22.516Z,26.88
2019-06-15T10:59:22.746Z,27.03
2019-06-15T11:00:22.787Z,27.39
2019-06-15T11:01:22.793Z,27.73
2019-06-15T11:02:22.846Z,27.95
2019-06-15T11:03:22.802Z,27.96
2019-06-15T11:04:22.803Z,27.93
2019-06-15T11:05:22.802Z,27.89
2019-06-15T11:06:22.291Z,27.67
2019-06-15T11:07:22.554Z,27.55
2019-06-15T11:08:22.789Z,27.29
2019-06-15T11:09:22.799Z,27.07
2019-06-15T11:10:22.836Z,26.99
2019-06-15T11:11:26.123Z,26.77
2019-06-15T11:12:22.808Z,26.66
2019-06-15T11:13:22.805Z,26.59
2019-06-15T11:14:22.836Z,26.43
2019-06-15T11:15:22.866Z,26.23
2019-06-15T11:16:22.837Z,26.05
2019-06-15T11:17:22.911Z,26.23
2019-06-15T11:18:22.841Z,26.37
2019-06-15T11:19:22.386Z,26.4
2019-06-15T11:20:22.634Z,26.38
2019-06-15T11:21:22.852Z,26.48
2019-06-15T11:22:22.878Z,26.71
2019-06-15T11:23:22.871Z,26.95
2019-06-15T11:24:22.655Z,27.1
2019-06-15T11:25:22.969Z,27.33
2019-06-15T11:26:22.631Z,27.39
2019-06-15T11:27:22.623Z,27.2
2019-06-15T11:28:22.930Z,27.12
2019-06-15T11:29:22.929Z,27.12
2019-06-15T11:30:22.920Z,27.11
2019-06-15T11:31:22.937Z,27.18
2019-06-15T11:32:22.923Z,27.36
2019-06-15T11:33:22.931Z,27.49
2019-06-15T11:34:22.689Z,27.55
2019-06-15T11:35:22.687Z,27.54
2019-06-15T11:36:22.712Z,27.63
2019-06-15T11:37:22.963Z,27.48
2019-06-15T11:38:22.949Z,27.29
2019-06-15T11:39:22.779Z,27.29
2019-06-15T11:40:22.994Z,26.99
2019-06-15T11:41:22.724Z,26.93
2019-06-15T11:42:22.713Z,26.77
2019-06-15T11:43:22.727Z,26.53
2019-06-15T11:44:23.010Z,26.4
2019-06-15T11:45:22.733Z,26.31
2019-06-15T11:46:22.990Z,26.05
2019-06-15T11:47:22.994Z,25.99
2019-06-15T11:48:22.763Z,26.06
2019-06-15T11:49:22.746Z,26.06
2019-06-15T11:50:22.997Z,26.07
2019-06-15T11:51:22.756Z,26.05
2019-06-15T11:52:22.810Z,25.98
2019-06-15T11:53:23.017Z,26.06
2019-06-15T11:54:22.814Z,26.13
2019-06-15T11:55:38.537Z,25.91
2019-06-15T11:56:22.861Z,25.83
2019-06-15T11:57:23.063Z,25.95
2019-06-15T11:58:22.529Z,26.09
2019-06-15T11:59:22.826Z,26.09
2019-06-15T12:00:35.879Z,26.09
2019-06-15T12:01:23.636Z,26.23
2019-06-15T12:02:23.056Z,26.44
2019-06-15T12:03:22.829Z,26.52
2019-06-15T12:04:23.192Z,26.6
2019-06-15T12:05:23.095Z,26.52
2019-06-15T12:06:22.566Z,26.48
2019-06-15T12:07:23.110Z,26.43
2019-06-15T12:08:23.089Z,26.37
2019-06-15T12:09:23.107Z,26.33
2019-06-15T12:10:23.111Z,26.36
2019-06-15T12:11:23.111Z,26.48
2019-06-15T12:12:23.123Z,26.56
2019-06-15T12:13:23.129Z,26.7
2019-06-15T12:14:22.615Z,26.66
2019-06-15T12:15:23.143Z,26.71
2019-06-15T12:16:22.933Z,26.81
2019-06-15T12:17:22.868Z,26.93
2019-06-15T12:18:23.142Z,26.88
2019-06-15T12:19:22.894Z,26.84
2019-06-15T12:20:22.920Z,26.7
2019-06-15T12:21:23.166Z,26.73
2019-06-15T12:22:23.335Z,26.71
2019-06-15T12:23:23.205Z,26.7
2019-06-15T12:24:23.391Z,26.66
2019-06-15T12:25:22.905Z,26.53
2019-06-15T12:26:22.913Z,26.47
2019-06-15T12:27:23.179Z,26.48
2019-06-15T12:28:22.952Z,26.44
2019-06-15T12:29:23.175Z,26.48
2019-06-15T12:30:23.189Z,26.43
2019-06-15T12:31:23.197Z,26.53
2019-06-15T12:32:22.939Z,26.56
2019-06-15T12:33:23.202Z,26.77
2019-06-15T12:34:25.688Z,26.75
2019-06-15T12:35:22.989Z,26.85
2019-06-15T12:36:24.513Z,26.83
2019-06-15T12:37:23.015Z,26.74
2019-06-15T12:38:22.956Z,26.74
2019-06-15T12:39:23.231Z,26.59
2019-06-15T12:40:23.050Z,26.58
2019-06-15T12:41:23.027Z,26.58
2019-06-15T12:42:23.064Z,26.48
2019-06-15T12:43:23.251Z,26.44
2019-06-15T12:44:23.001Z,26.4
2019-06-15T12:45:23.250Z,26.45
2019-06-15T12:46:23.267Z,26.38
2019-06-15T12:47:22.794Z,26.48
2019-06-15T12:48:23.298Z,26.45
2019-06-15T12:49:23.263Z,26.44
2019-06-15T12:50:23.290Z,26.48
2019-06-15T12:51:23.025Z,26.51
2019-06-15T12:52:23.278Z,26.59
2019-06-15T12:53:23.068Z,26.55
2019-06-15T12:54:23.318Z,26.52
2019-06-15T12:55:23.063Z,26.47